Time;durP1;ratioP1;P1;durP2;ratioP2;P2;SDS_P1;SDS_P2;PMS_P1;PMS_P2;Temp;Humidity;BMP_temperature;BMP_pressure;BME280_temperature;BME280_humidity;BME280_pressure;Samples;Min_cycle;Max_cycle;Signal;HPM_P1;HPM_P2
2022/11/16 00:02:11;;;;;;;8.70;6.20;;;;;;;10.49;57.44;100180.59;105707;1306;21968;-66
2022/11/16 00:04:37;;;;;;;10.90;6.60;;;;;;;10.44;57.41;100178.91;105800;1307;21960;-67
2022/11/16 00:07:05;;;;;;;9.90;6.30;;;;;;;10.40;57.25;100171.94;105865;1306;21961;-67
2022/11/16 00:09:31;;;;;;;20.20;11.50;;;;;;;10.33;57.36;100168.70;105736;1307;21961;-67
2022/11/16 00:12:01;;;;;;;27.60;14.20;;;;;;;10.26;57.33;100168.45;105744;1306;21999;-67
2022/11/16 00:14:32;;;;;;;19.70;11.60;;;;;;;10.21;57.42;100166.75;105833;1297;21980;-67
2022/11/16 00:17:00;;;;;;;17.20;8.60;;;;;;;10.16;57.54;100160.70;105661;1307;21978;-67
2022/11/16 00:19:27;;;;;;;12.80;8.40;;;;;;;10.11;57.63;100153.58;105667;1306;21954;-66
2022/11/16 00:21:54;;;;;;;11.30;8.00;;;;;;;10.09;57.83;100152.20;105594;1307;21954;-67
2022/11/16 00:24:22;;;;;;;12.20;7.50;;;;;;;10.06;57.81;100147.33;105681;1307;21954;-66
2022/11/16 00:26:48;;;;;;;10.90;7.30;;;;;;;10.04;57.80;100145.08;105648;1307;21970;-65
2022/11/16 00:29:21;;;;;;;13.40;7.60;;;;;;;10.04;58.01;100141.23;105699;1307;21951;-66
2022/11/16 00:31:47;;;;;;;10.70;7.10;;;;;;;10.04;58.23;100136.84;105719;1307;21965;-67
2022/11/16 00:34:13;;;;;;;9.80;7.10;;;;;;;10.08;58.37;100141.16;105724;1309;21944;-67
2022/11/16 00:36:40;;;;;;;10.80;7.90;;;;;;;10.14;58.69;100138.45;105719;1306;21962;-67
2022/11/16 00:39:06;;;;;;;11.10;7.40;;;;;;;10.21;58.77;100137.11;105702;1306;21967;-66
2022/11/16 00:41:33;;;;;;;13.20;7.40;;;;;;;10.28;58.92;100139.14;105632;1299;21962;-66
2022/11/16 00:43:58;;;;;;;9.90;6.50;;;;;;;10.36;58.95;100134.98;105761;1306;21963;-65
2022/11/16 00:46:25;;;;;;;10.80;7.00;;;;;;;10.43;58.89;100129.27;105700;1306;21952;-65
2022/11/16 00:48:51;;;;;;;11.50;7.40;;;;;;;10.48;58.75;100124.12;105721;1306;21960;-66
2022/11/16 00:51:17;;;;;;;10.50;7.30;;;;;;;10.53;58.84;100121.59;105788;1306;21984;-65
2022/11/16 00:53:43;;;;;;;12.90;7.70;;;;;;;10.57;58.78;100122.05;105847;1306;21953;-65
2022/11/16 00:56:15;;;;;;;11.90;7.20;;;;;;;10.61;58.66;100120.94;105785;1306;21965;-66
2022/11/16 00:59:01;;;;;;;9.80;6.70;;;;;;;10.64;58.61;100123.52;105842;1307;23592;-65
2022/11/16 01:01:27;;;;;;;9.30;6.10;;;;;;;10.66;58.73;100121.19;105799;1306;21962;-66
2022/11/16 01:03:53;;;;;;;10.40;7.10;;;;;;;10.68;58.74;100117.13;105700;1306;21958;-65
2022/11/16 01:06:22;;;;;;;9.70;6.70;;;;;;;10.71;58.74;100114.80;105656;1306;21958;-66
2022/11/16 01:08:48;;;;;;;12.10;7.20;;;;;;;10.74;58.59;100111.23;105690;1306;21962;-65
2022/11/16 01:14:02;;;;;;;12.00;7.60;;;;;;;10.78;58.58;100108.54;105637;1306;21961;-67
2022/11/16 01:16:28;;;;;;;9.70;6.90;;;;;;;10.79;58.49;100108.34;105692;1306;21954;-66
2022/11/16 01:18:56;;;;;;;11.00;7.40;;;;;;;10.81;58.63;100104.27;105644;1306;21962;-65
2022/11/16 01:21:22;;;;;;;12.90;7.80;;;;;;;10.83;58.78;100103.00;105593;1306;21972;-66
2022/11/16 01:23:49;;;;;;;11.00;7.40;;;;;;;10.83;58.93;100097.73;105625;1306;21973;-66
2022/11/16 01:26:15;;;;;;;12.70;7.30;;;;;;;10.84;58.96;100094.89;105627;1306;21979;-66
2022/11/16 01:28:41;;;;;;;10.30;7.10;;;;;;;10.86;58.94;100091.18;105671;1306;21981;-66
2022/11/16 01:31:09;;;;;;;9.50;6.30;;;;;;;10.89;58.96;100086.75;105692;1307;21980;-66
2022/11/16 01:33:35;;;;;;;10.10;6.30;;;;;;;10.92;58.85;100083.36;105791;1298;21954;-65
2022/11/16 01:36:01;;;;;;;10.60;6.60;;;;;;;10.96;59.02;100082.41;105757;1306;21979;-66
2022/11/16 01:38:26;;;;;;;10.60;7.50;;;;;;;10.98;59.09;100077.81;105699;1306;21961;-66
2022/11/16 01:40:53;;;;;;;9.90;7.10;;;;;;;10.98;58.82;100074.48;105638;1306;21954;-67
2022/11/16 01:43:23;;;;;;;10.70;7.10;;;;;;;10.96;58.85;100073.64;105635;1306;21960;-67
2022/11/16 01:45:50;;;;;;;11.30;6.70;;;;;;;10.94;58.91;100074.91;105651;1305;21925;-66
2022/11/16 01:48:19;;;;;;;10.50;7.20;;;;;;;10.94;59.07;100072.09;105641;1306;22092;-68
2022/11/16 01:50:45;;;;;;;12.10;7.60;;;;;;;10.95;59.12;100066.80;105677;1306;21962;-65
2022/11/16 01:53:11;;;;;;;11.40;7.60;;;;;;;10.97;59.05;100065.71;105644;1306;21974;-65
2022/11/16 01:55:39;;;;;;;10.60;6.90;;;;;;;10.98;59.11;100065.34;105624;1309;21984;-65
2022/11/16 01:58:05;;;;;;;8.20;5.90;;;;;;;11.02;58.87;100069.48;105627;1306;21961;-65
2022/11/16 02:00:32;;;;;;;12.50;6.90;;;;;;;11.05;58.99;100068.38;105679;1306;21986;-65
2022/11/16 02:03:00;;;;;;;9.50;6.50;;;;;;;11.07;59.01;100064.62;105778;1306;21970;-66
2022/11/16 02:05:58;;;;;;;10.40;7.00;;;;;;;11.10;58.93;100063.71;105730;1306;21964;-65
2022/11/16 02:11:44;;;;;;;10.60;6.50;;;;;;;11.14;58.93;100060.66;105625;1306;21970;-65
2022/11/16 02:14:19;;;;;;;9.90;5.90;;;;;;;11.16;58.83;100057.27;105718;1304;21984;-66
2022/11/16 02:17:10;;;;;;;9.20;5.30;;;;;;;11.16;59.05;100054.09;105708;1297;21975;-65
2022/11/16 02:20:21;;;;;;;8.60;6.10;;;;;;;11.16;58.84;100051.65;105714;1306;21966;-66
2022/11/16 02:23:14;;;;;;;8.30;5.40;;;;;;;11.19;59.02;100050.73;105205;1313;21972;-65
2022/11/16 02:25:50;;;;;;;9.00;5.70;;;;;;;11.21;58.88;100046.29;105631;1305;21978;-65
2022/11/16 02:28:37;;;;;;;11.20;6.20;;;;;;;11.24;58.97;100044.66;105712;1306;21978;-68
2022/11/16 02:31:04;;;;;;;10.10;6.40;;;;;;;11.27;58.75;100041.42;105696;1306;21959;-66
2022/11/16 02:33:34;;;;;;;10.10;6.10;;;;;;;11.29;58.78;100028.55;104902;1306;1002923;-66
2022/11/16 02:36:01;;;;;;;9.30;6.30;;;;;;;11.31;58.82;100025.01;105649;1306;21969;-66
2022/11/16 02:38:30;;;;;;;8.90;5.60;;;;;;;11.32;58.76;100027.44;105677;1306;21938;-66
2022/11/16 02:40:59;;;;;;;8.70;5.50;;;;;;;11.33;58.60;100022.86;105868;1306;21970;-66
2022/11/16 02:43:34;;;;;;;9.30;5.10;;;;;;;11.36;58.75;100021.40;105643;1306;21973;-67
2022/11/16 02:46:03;;;;;;;11.30;6.70;;;;;;;11.39;58.83;100018.33;105675;1308;21959;-66
2022/11/16 02:48:34;;;;;;;9.00;6.00;;;;;;;11.43;58.59;100014.58;105823;1306;21963;-67
2022/11/16 02:51:00;;;;;;;9.80;5.60;;;;;;;11.45;58.60;100015.58;105700;1307;22431;-66
2022/11/16 02:53:26;;;;;;;11.40;6.00;;;;;;;11.49;58.63;100016.02;105592;1309;23080;-67
2022/11/16 02:55:52;;;;;;;8.80;5.60;;;;;;;11.50;58.60;100013.35;105657;1309;21977;-67
2022/11/16 02:58:23;;;;;;;10.10;6.40;;;;;;;11.50;58.72;100010.18;105654;1299;21987;-67
2022/11/16 03:01:01;;;;;;;8.80;6.20;;;;;;;11.50;58.52;100009.66;105672;1306;21958;-67
2022/11/16 03:03:37;;;;;;;10.20;6.50;;;;;;;11.56;58.60;100004.09;105693;1306;21933;-68
2022/11/16 03:06:10;;;;;;;9.60;5.60;;;;;;;11.58;58.43;99997.02;105766;1306;21963;-67
2022/11/16 03:08:39;;;;;;;8.30;5.40;;;;;;;11.56;58.41;99995.64;105037;1306;1002993;-67
2022/11/16 03:14:02;;;;;;;9.40;5.50;;;;;;;11.63;58.58;99987.08;105713;1306;21958;-67
2022/11/16 03:16:35;;;;;;;9.60;5.60;;;;;;;11.66;58.42;99986.83;105784;1306;21960;-67
2022/11/16 03:19:03;;;;;;;10.10;6.50;;;;;;;11.67;58.31;99981.35;105663;1306;22055;-67
2022/11/16 03:21:38;;;;;;;8.60;5.80;;;;;;;11.69;58.28;99976.56;105695;1306;21967;-67
2022/11/16 03:24:05;;;;;;;9.70;5.60;;;;;;;11.67;58.25;99970.64;105641;1306;21958;-67
2022/11/16 03:26:35;;;;;;;11.40;6.80;;;;;;;11.67;58.24;99966.41;105789;1306;23182;-67
2022/11/16 03:29:12;;;;;;;10.40;6.10;;;;;;;11.67;58.38;99962.55;105699;1306;21969;-68
2022/11/16 03:31:45;;;;;;;9.60;5.90;;;;;;;11.64;58.37;99958.75;105620;1306;21957;-68
2022/11/16 03:34:15;;;;;;;9.90;6.50;;;;;;;11.67;58.27;99959.91;105688;1306;22001;-67
2022/11/16 03:36:44;;;;;;;10.80;6.90;;;;;;;11.72;58.11;99960.31;105673;1304;21963;-68
2022/11/16 03:39:30;;;;;;;9.40;5.90;;;;;;;11.74;58.21;99962.20;105606;1306;21973;-67
2022/11/16 03:41:56;;;;;;;10.10;6.90;;;;;;;11.73;58.17;99959.59;105615;1305;21955;-67
2022/11/16 03:44:23;;;;;;;10.90;5.60;;;;;;;11.71;58.14;99957.17;105617;1305;21955;-67
2022/11/16 03:46:50;;;;;;;8.80;6.20;;;;;;;11.69;58.23;99957.94;105702;1306;21968;-67
2022/11/16 03:49:21;;;;;;;10.60;6.60;;;;;;;11.71;58.26;99957.17;105686;1301;21975;-68
2022/11/16 03:51:48;;;;;;;9.80;6.20;;;;;;;11.72;58.26;99954.50;105789;1306;22848;-66
2022/11/16 03:54:14;;;;;;;9.60;6.00;;;;;;;11.74;58.29;99949.17;105656;1307;21954;-67
